createdAt,value
2018-12-21T00:02:13.682Z,93.03
2018-12-21T00:04:41.111Z,93.04
2018-12-21T00:07:08.537Z,92.89
2018-12-21T00:09:35.955Z,92.81
2018-12-21T00:12:03.391Z,92.46
2018-12-21T00:14:30.804Z,92.98
2018-12-21T00:16:58.244Z,92.82
2018-12-21T00:19:25.712Z,92.06
2018-12-21T00:21:53.144Z,92.81
2018-12-21T00:24:20.585Z,92.27
2018-12-21T00:26:48.088Z,92.21
2018-12-21T00:29:15.582Z,92.11
2018-12-21T00:31:48.693Z,92.42
2018-12-21T00:34:21.833Z,91.56
2018-12-21T00:36:54.812Z,91.95
2018-12-21T00:39:27.855Z,92.13
2018-12-21T00:41:54.847Z,91.37
2018-12-21T00:44:24.241Z,91.77
2018-12-21T00:46:51.671Z,91.37
2018-12-21T00:49:19.073Z,91.58
2018-12-21T00:51:46.631Z,91.17
2018-12-21T00:54:14.073Z,91.19
2018-12-21T00:56:41.615Z,91.69
2018-12-21T00:59:09.091Z,91.46
2018-12-21T01:01:36.565Z,91.12
2018-12-21T01:04:04.089Z,91.34
2018-12-21T01:06:31.562Z,91.41
2018-12-21T01:08:59.051Z,91.06
2018-12-21T01:11:26.467Z,91.38
2018-12-21T01:13:53.908Z,90.74
2018-12-21T01:16:21.390Z,90.44
2018-12-21T01:18:48.877Z,90.30
2018-12-21T01:21:16.296Z,90.54
2018-12-21T01:23:43.859Z,90.55
2018-12-21T01:26:11.315Z,90.65
2018-12-21T01:28:38.732Z,90.24
2018-12-21T01:31:06.179Z,89.67
2018-12-21T01:33:33.594Z,90.22
2018-12-21T01:36:01.157Z,89.82
2018-12-21T01:38:28.589Z,89.22
2018-12-21T01:40:56.056Z,89.84
2018-12-21T01:43:23.519Z,89.68
2018-12-21T01:45:51.068Z,89.07
2018-12-21T01:48:18.615Z,89.06
2018-12-21T01:50:46.092Z,88.72
2018-12-21T01:53:13.527Z,88.83
2018-12-21T01:55:40.938Z,88.58
2018-12-21T01:58:08.375Z,88.18
2018-12-21T02:00:35.803Z,88.39
2018-12-21T02:03:03.271Z,88.73
2018-12-21T02:05:30.677Z,88.53
2018-12-21T02:07:58.230Z,88.66
2018-12-21T02:10:25.741Z,88.27
2018-12-21T02:12:53.213Z,88.29
2018-12-21T02:15:20.700Z,88.64
2018-12-21T02:17:48.233Z,88.11
2018-12-21T02:20:15.658Z,88.10
2018-12-21T02:22:43.226Z,87.76
2018-12-21T02:25:10.701Z,87.74
2018-12-21T02:27:38.124Z,88.00
2018-12-21T02:30:06.754Z,87.68
2018-12-21T02:32:34.197Z,87.40
2018-12-21T02:35:01.615Z,87.25
2018-12-21T02:37:29.096Z,87.23
2018-12-21T02:39:56.514Z,86.98
2018-12-21T02:42:23.949Z,87.13
2018-12-21T02:44:51.364Z,86.85
2018-12-21T02:47:18.926Z,86.52
2018-12-21T02:49:46.382Z,86.78
2018-12-21T02:52:13.852Z,86.89
2018-12-21T02:54:41.294Z,87.07
2018-12-21T02:57:08.762Z,86.79
2018-12-21T02:59:36.227Z,86.20
2018-12-21T03:02:03.683Z,86.72
2018-12-21T03:04:31.147Z,86.55
2018-12-21T03:06:58.587Z,86.48
2018-12-21T03:09:26.012Z,86.55
2018-12-21T03:11:53.703Z,86.79
2018-12-21T03:14:21.106Z,86.14
2018-12-21T03:16:48.648Z,86.08
2018-12-21T03:19:16.148Z,86.42
2018-12-21T03:21:43.644Z,86.06
2018-12-21T03:24:11.201Z,86.75
2018-12-21T03:26:38.641Z,86.56
2018-12-21T03:29:06.107Z,86.40
2018-12-21T03:31:33.515Z,86.09
2018-12-21T03:34:01.134Z,86.21
2018-12-21T03:36:28.543Z,86.80
2018-12-21T03:38:56.049Z,85.98
2018-12-21T03:41:23.502Z,86.23
2018-12-21T03:43:50.955Z,86.58
2018-12-21T03:46:18.431Z,86.20
2018-12-21T03:48:45.863Z,85.69
2018-12-21T03:51:13.287Z,85.79
2018-12-21T03:53:40.781Z,85.67
2018-12-21T03:56:08.238Z,85.90
2018-12-21T03:58:35.697Z,85.83
2018-12-21T04:01:03.109Z,85.97
2018-12-21T04:03:30.525Z,86.27
2018-12-21T04:05:57.958Z,85.25
2018-12-21T04:08:25.365Z,85.25
2018-12-21T04:10:52.869Z,85.39
2018-12-21T04:13:20.358Z,85.00
2018-12-21T04:15:47.766Z,85.42
2018-12-21T04:18:15.249Z,85.16
2018-12-21T04:20:42.686Z,84.84
2018-12-21T04:23:10.276Z,84.93
2018-12-21T04:25:37.695Z,85.16
2018-12-21T04:28:05.174Z,84.38
2018-12-21T04:30:32.641Z,84.62
2018-12-21T04:33:00.046Z,84.52
2018-12-21T04:35:27.472Z,84.86
2018-12-21T04:37:54.915Z,84.88
2018-12-21T04:40:22.454Z,85.07
2018-12-21T04:42:49.862Z,84.83
2018-12-21T04:45:17.398Z,85.04
2018-12-21T04:47:44.911Z,85.00
2018-12-21T04:50:12.401Z,84.65
2018-12-21T04:52:43.396Z,84.82
2018-12-21T04:55:09.229Z,85.39
2018-12-21T04:57:36.663Z,85.19
2018-12-21T05:00:04.878Z,85.39
2018-12-21T05:02:32.369Z,85.31
2018-12-21T05:04:59.889Z,84.70
2018-12-21T05:07:27.354Z,85.36
2018-12-21T05:09:54.810Z,85.03
2018-12-21T05:12:22.709Z,84.71
2018-12-21T05:14:50.248Z,84.99
2018-12-21T05:17:17.714Z,84.68
2018-12-21T05:19:45.156Z,84.84
2018-12-21T05:22:12.614Z,84.52
2018-12-21T05:24:40.045Z,85.16
2018-12-21T05:27:07.528Z,84.32
2018-12-21T05:29:34.945Z,84.90
2018-12-21T05:32:02.357Z,84.81
2018-12-21T05:34:29.770Z,84.73
2018-12-21T05:36:57.203Z,84.88
2018-12-21T05:39:24.624Z,84.28
2018-12-21T05:41:52.092Z,84.46
2018-12-21T05:44:19.507Z,85.12
2018-12-21T05:46:46.989Z,85.17
2018-12-21T05:49:14.407Z,85.74
2018-12-21T05:51:41.855Z,85.64
2018-12-21T05:54:09.426Z,85.66
2018-12-21T05:56:36.931Z,86.02
2018-12-21T05:59:04.483Z,86.30
2018-12-21T06:01:31.924Z,86.78
2018-12-21T06:03:59.401Z,87.38
2018-12-21T06:06:26.826Z,87.87
2018-12-21T06:08:54.223Z,88.45
2018-12-21T06:11:21.865Z,89.07
2018-12-21T06:13:49.270Z,89.81
2018-12-21T06:16:16.771Z,89.78
2018-12-21T06:18:44.204Z,90.07
2018-12-21T06:21:11.623Z,90.93
2018-12-21T06:23:39.144Z,90.77
2018-12-21T06:26:06.560Z,91.42
2018-12-21T06:28:34.047Z,91.52
2018-12-21T06:31:01.475Z,91.51
2018-12-21T06:33:28.892Z,91.74
2018-12-21T06:35:56.305Z,92.45
2018-12-21T06:38:23.739Z,92.61
2018-12-21T06:40:51.226Z,92.70
2018-12-21T06:43:18.621Z,92.50
2018-12-21T06:45:46.156Z,92.82
2018-12-21T06:48:13.573Z,92.63
2018-12-21T06:50:41.053Z,93.24
2018-12-21T06:53:08.483Z,93.83
2018-12-21T06:55:35.893Z,93.35
2018-12-21T06:58:03.329Z,93.60
2018-12-21T07:00:30.742Z,93.51
2018-12-21T07:02:58.179Z,93.66
2018-12-21T07:05:25.604Z,93.71
2018-12-21T07:07:53.058Z,93.88
2018-12-21T07:10:20.543Z,94.23
2018-12-21T07:12:47.960Z,93.58
2018-12-21T07:15:15.432Z,94.12
2018-12-21T07:17:42.851Z,94.33
2018-12-21T07:20:10.285Z,94.23
2018-12-21T07:22:37.803Z,93.72
2018-12-21T07:25:06.523Z,94.30
2018-12-21T07:27:34.047Z,94.58
2018-12-21T07:30:01.513Z,94.05
2018-12-21T07:32:28.952Z,94.35
2018-12-21T07:34:56.409Z,94.68
2018-12-21T07:37:23.865Z,94.38
2018-12-21T07:39:51.301Z,94.45
2018-12-21T07:42:18.727Z,94.54
2018-12-21T07:44:46.233Z,94.20
2018-12-21T07:47:13.652Z,94.55
2018-12-21T07:49:41.077Z,94.28
2018-12-21T07:52:08.490Z,94.91
2018-12-21T07:54:35.961Z,94.84
2018-12-21T07:57:03.447Z,94.38
2018-12-21T07:59:30.874Z,94.57
2018-12-21T08:01:58.292Z,94.73
2018-12-21T08:04:25.693Z,94.39
2018-12-21T08:06:53.132Z,94.73
2018-12-21T08:09:20.567Z,94.99
2018-12-21T08:11:47.990Z,94.33
2018-12-21T08:14:15.447Z,94.67
2018-12-21T08:16:42.866Z,94.93
2018-12-21T08:19:10.303Z,94.90
2018-12-21T08:21:37.724Z,94.20
2018-12-21T08:24:05.242Z,94.93
2018-12-21T08:26:32.673Z,94.67
2018-12-21T08:29:00.190Z,94.18
2018-12-21T08:31:27.727Z,94.74
2018-12-21T08:33:55.177Z,94.52
2018-12-21T08:36:22.644Z,94.71
2018-12-21T08:38:50.061Z,95.08
2018-12-21T08:41:17.492Z,94.63
2018-12-21T08:43:44.901Z,94.90
2018-12-21T08:46:12.322Z,95.31
2018-12-21T08:48:39.739Z,94.72
2018-12-21T08:51:07.144Z,94.89
2018-12-21T08:53:34.637Z,95.42
2018-12-21T08:56:02.080Z,94.50
2018-12-21T08:58:29.507Z,95.28
2018-12-21T09:00:57.008Z,95.31
2018-12-21T09:03:24.439Z,95.28
2018-12-21T09:05:51.867Z,95.71
2018-12-21T09:08:19.377Z,95.30
2018-12-21T09:10:46.847Z,95.22
2018-12-21T09:13:14.275Z,95.54
2018-12-21T09:15:41.733Z,95.72
2018-12-21T09:18:09.174Z,95.39
2018-12-21T09:20:36.652Z,95.55
2018-12-21T09:23:04.079Z,95.69
2018-12-21T09:25:31.544Z,95.73
2018-12-21T09:27:58.976Z,96.25
2018-12-21T09:30:26.438Z,96.22
2018-12-21T09:32:53.905Z,96.11
2018-12-21T09:35:21.297Z,96.81
2018-12-21T09:37:48.728Z,96.41
2018-12-21T09:40:16.150Z,96.14
2018-12-21T09:42:43.565Z,96.06
2018-12-21T09:45:11.029Z,96.54
2018-12-21T09:47:38.451Z,96.66
2018-12-21T09:50:06.960Z,96.47
2018-12-21T09:52:34.410Z,96.62
2018-12-21T09:55:01.935Z,96.79
2018-12-21T09:57:29.360Z,96.24
2018-12-21T09:59:56.885Z,96.42
2018-12-21T10:02:24.356Z,97.12
2018-12-21T10:04:51.769Z,96.72
2018-12-21T10:07:27.376Z,96.55
2018-12-21T10:09:48.675Z,96.63
2018-12-21T10:12:16.110Z,96.08
2018-12-21T10:14:43.577Z,96.55
2018-12-21T10:17:11.144Z,96.94
2018-12-21T10:19:38.604Z,97.05
2018-12-21T10:22:06.009Z,97.05
2018-12-21T10:24:33.431Z,96.99
2018-12-21T10:27:00.834Z,96.19
2018-12-21T10:29:28.313Z,96.84
2018-12-21T10:31:55.722Z,96.88
2018-12-21T10:35:08.806Z,97.16
2018-12-21T10:37:36.276Z,96.89
2018-12-21T10:40:04.881Z,96.79
2018-12-21T10:42:32.400Z,96.83
2018-12-21T10:44:59.822Z,97.30
2018-12-21T10:47:27.267Z,96.92
2018-12-21T10:49:54.691Z,96.79
2018-12-21T10:52:22.124Z,97.14
2018-12-21T10:54:49.545Z,97.14
2018-12-21T10:57:16.953Z,96.77
2018-12-21T10:59:44.512Z,97.21
2018-12-21T11:02:11.963Z,97.43
2018-12-21T11:04:39.520Z,97.04
2018-12-21T11:07:07.178Z,96.70
2018-12-21T11:09:34.655Z,97.22
2018-12-21T11:12:02.103Z,96.79
2018-12-21T11:14:29.537Z,97.03
2018-12-21T11:16:56.955Z,96.99
2018-12-21T11:19:24.467Z,97.42
2018-12-21T11:21:51.923Z,97.02
2018-12-21T11:24:19.365Z,97.72
2018-12-21T11:26:46.777Z,97.50
2018-12-21T11:29:14.201Z,97.67
2018-12-21T11:31:41.634Z,97.30
2018-12-21T11:34:09.074Z,97.83
2018-12-21T11:36:36.500Z,98.32
2018-12-21T11:39:05.604Z,98.20
2018-12-21T11:41:33.023Z,98.64
2018-12-21T11:44:00.477Z,98.15
2018-12-21T11:46:27.914Z,98.64
2018-12-21T11:48:55.337Z,98.33
2018-12-21T11:51:22.760Z,98.30
2018-12-21T11:53:50.197Z,98.60
2018-12-21T11:56:17.636Z,98.38
2018-12-21T11:58:45.115Z,98.67
2018-12-21T12:01:12.568Z,99.21
2018-12-21T12:03:39.991Z,99.27
2018-12-21T12:06:07.484Z,98.92
2018-12-21T12:08:34.909Z,99.30
2018-12-21T12:11:02.339Z,99.23
2018-12-21T12:13:29.760Z,99.48
2018-12-21T12:15:57.213Z,99.82
2018-12-21T12:18:24.660Z,100.00
2018-12-21T12:20:52.112Z,99.39
2018-12-21T12:23:19.593Z,100.00
2018-12-21T12:25:47.125Z,99.89
2018-12-21T12:28:14.565Z,100.00
2018-12-21T12:30:41.987Z,100.00
2018-12-21T12:33:09.464Z,100.00
2018-12-21T12:35:36.973Z,100.00
2018-12-21T12:38:04.394Z,100.00
2018-12-21T12:40:31.891Z,100.00
2018-12-21T12:42:59.337Z,100.00
2018-12-21T12:45:26.799Z,100.00
2018-12-21T12:47:54.232Z,100.00
2018-12-21T12:50:21.681Z,100.00
2018-12-21T12:52:49.100Z,100.00
2018-12-21T12:55:16.536Z,100.00
2018-12-21T12:57:43.977Z,100.00
2018-12-21T13:00:11.532Z,100.00
2018-12-21T13:02:38.954Z,100.00
2018-12-21T13:05:06.793Z,100.00
2018-12-21T13:07:34.221Z,100.00
2018-12-21T13:10:01.693Z,100.00
2018-12-21T13:12:29.116Z,100.00
2018-12-21T13:14:56.563Z,100.00
2018-12-21T13:17:23.982Z,100.00
2018-12-21T13:19:51.489Z,100.00
2018-12-21T13:22:18.945Z,100.00
2018-12-21T13:24:46.391Z,100.00
2018-12-21T13:27:13.797Z,100.00
2018-12-21T13:29:41.209Z,100.00
2018-12-21T13:32:08.671Z,100.00
2018-12-21T13:34:36.082Z,100.00
2018-12-21T13:37:03.615Z,100.00
2018-12-21T13:39:31.043Z,100.00
2018-12-21T13:41:58.505Z,100.00
2018-12-21T13:44:25.975Z,100.00
2018-12-21T13:46:53.403Z,99.98
2018-12-21T13:49:20.834Z,99.01
2018-12-21T13:51:48.342Z,98.71
2018-12-21T13:54:15.784Z,98.65
2018-12-21T13:56:43.215Z,97.87
2018-12-21T13:59:10.659Z,97.47
2018-12-21T14:01:38.114Z,97.58
2018-12-21T14:04:05.596Z,96.32
2018-12-21T14:06:33.011Z,95.73
2018-12-21T14:09:00.413Z,95.32
2018-12-21T14:11:27.848Z,95.13
2018-12-21T14:13:55.465Z,94.97
2018-12-21T14:16:22.927Z,94.48
2018-12-21T14:18:50.336Z,95.05
2018-12-21T14:21:17.769Z,95.02
2018-12-21T14:23:45.291Z,94.95
2018-12-21T14:26:12.747Z,94.78
2018-12-21T14:28:40.181Z,95.26
2018-12-21T14:31:07.622Z,94.52
2018-12-21T14:33:35.140Z,93.86
2018-12-21T14:36:02.549Z,93.81
2018-12-21T14:38:30.023Z,92.89
2018-12-21T14:40:57.443Z,92.98
2018-12-21T14:43:24.866Z,92.69
2018-12-21T14:45:52.288Z,91.53
2018-12-21T14:48:19.716Z,90.88
2018-12-21T14:50:47.189Z,90.03
2018-12-21T14:53:14.602Z,90.13
2018-12-21T14:55:42.119Z,88.75
2018-12-21T14:58:09.587Z,88.59
2018-12-21T15:00:37.017Z,88.55
2018-12-21T15:03:04.457Z,87.37
2018-12-21T15:05:31.865Z,87.46
2018-12-21T15:07:59.304Z,86.90
2018-12-21T15:10:26.780Z,86.37
2018-12-21T15:12:54.205Z,83.69
2018-12-21T15:15:21.676Z,83.53
2018-12-21T15:17:49.217Z,82.98
2018-12-21T15:20:16.689Z,83.37
2018-12-21T15:22:44.163Z,82.10
2018-12-21T15:25:11.615Z,82.43
2018-12-21T15:27:39.059Z,81.43
2018-12-21T15:30:08.432Z,81.07
2018-12-21T15:32:35.849Z,80.86
2018-12-21T15:35:03.677Z,79.75
2018-12-21T15:37:31.153Z,79.21
2018-12-21T15:39:58.657Z,79.14
2018-12-21T15:42:26.100Z,78.19
2018-12-21T15:44:53.519Z,77.17
2018-12-21T15:47:20.991Z,76.50
2018-12-21T15:49:48.421Z,76.19
2018-12-21T15:52:15.896Z,75.80
2018-12-21T15:54:43.327Z,76.43
2018-12-21T15:57:10.737Z,76.47
2018-12-21T15:59:38.220Z,75.75
2018-12-21T16:02:05.703Z,76.70
2018-12-21T16:04:33.124Z,76.95
2018-12-21T16:07:00.590Z,76.06
2018-12-21T16:09:28.087Z,76.28
2018-12-21T16:11:55.660Z,75.98
2018-12-21T16:14:23.111Z,77.04
2018-12-21T16:16:50.559Z,76.41
2018-12-21T16:19:18.016Z,77.30
2018-12-21T16:21:45.488Z,76.89
2018-12-21T16:24:12.922Z,77.31
2018-12-21T16:26:40.386Z,78.11
2018-12-21T16:29:07.807Z,78.91
2018-12-21T16:31:35.212Z,79.26
2018-12-21T16:34:02.646Z,79.79
2018-12-21T16:36:30.072Z,79.72
2018-12-21T16:38:57.558Z,79.43
2018-12-21T16:41:25.027Z,79.30
2018-12-21T16:43:52.520Z,78.54
2018-12-21T16:46:19.944Z,78.10
2018-12-21T16:48:47.429Z,77.76
2018-12-21T16:51:14.899Z,77.32
2018-12-21T16:53:42.753Z,76.71
2018-12-21T16:56:12.687Z,77.24
2018-12-21T16:58:39.651Z,77.34
2018-12-21T17:01:07.057Z,77.34
2018-12-21T17:03:34.499Z,76.40
2018-12-21T17:06:01.919Z,76.13
2018-12-21T17:08:29.438Z,76.34
2018-12-21T17:10:56.952Z,76.81
2018-12-21T17:13:24.416Z,76.44
2018-12-21T17:15:51.889Z,76.37
2018-12-21T17:18:19.416Z,77.01
2018-12-21T17:20:46.892Z,76.40
2018-12-21T17:23:14.311Z,76.40
2018-12-21T17:25:41.770Z,75.25
2018-12-21T17:28:09.269Z,75.55
2018-12-21T17:30:36.831Z,74.92
2018-12-21T17:33:04.249Z,73.84
2018-12-21T17:35:31.665Z,73.86
2018-12-21T17:37:59.098Z,73.86
2018-12-21T17:40:26.504Z,73.71
2018-12-21T17:42:53.947Z,72.79
2018-12-21T17:45:21.467Z,73.03
2018-12-21T17:47:48.913Z,73.67
2018-12-21T17:50:16.380Z,73.34
2018-12-21T17:52:43.791Z,72.88
2018-12-21T17:55:11.223Z,72.74
2018-12-21T17:57:38.633Z,72.04
2018-12-21T18:00:11.565Z,72.34
2018-12-21T18:02:38.991Z,71.21
2018-12-21T18:05:06.785Z,71.55
2018-12-21T18:07:34.192Z,70.81
2018-12-21T18:10:01.614Z,70.97
2018-12-21T18:12:29.089Z,71.39
2018-12-21T18:14:56.591Z,71.11
2018-12-21T18:17:24.024Z,70.96
2018-12-21T18:19:51.500Z,71.14
2018-12-21T18:22:18.924Z,70.94
2018-12-21T18:24:46.702Z,71.17
2018-12-21T18:27:14.133Z,71.23
2018-12-21T18:29:41.605Z,71.66
2018-12-21T18:32:09.623Z,72.29
2018-12-21T18:34:37.051Z,72.06
2018-12-21T18:37:04.534Z,72.71
2018-12-21T18:39:31.957Z,72.72
2018-12-21T18:41:59.432Z,73.10
2018-12-21T18:44:26.873Z,73.43
2018-12-21T18:46:54.297Z,73.04
2018-12-21T18:49:21.718Z,73.29
2018-12-21T18:51:49.269Z,73.40
2018-12-21T18:54:17.038Z,73.31
2018-12-21T18:56:48.493Z,73.66
2018-12-21T18:59:15.914Z,74.04
2018-12-21T19:01:43.324Z,74.05
2018-12-21T19:04:10.832Z,73.75
2018-12-21T19:06:38.324Z,73.60
2018-12-21T19:09:05.804Z,73.54
2018-12-21T19:11:33.310Z,73.82
2018-12-21T19:14:00.873Z,74.10
2018-12-21T19:16:28.284Z,73.89
2018-12-21T19:18:55.782Z,74.15
2018-12-21T19:21:23.244Z,74.26
2018-12-21T19:23:50.671Z,74.39
2018-12-21T19:26:18.175Z,74.50
2018-12-21T19:28:45.604Z,74.59
2018-12-21T19:31:13.062Z,74.78
2018-12-21T19:33:40.500Z,74.61
2018-12-21T19:36:07.942Z,74.48
2018-12-21T19:38:35.456Z,75.08
2018-12-21T19:41:02.877Z,75.55
2018-12-21T19:43:30.310Z,76.55
2018-12-21T19:45:57.729Z,76.53
2018-12-21T19:48:25.147Z,76.38
2018-12-21T19:50:52.592Z,76.32
2018-12-21T19:53:20.001Z,76.81
2018-12-21T19:55:48.916Z,77.21
2018-12-21T19:58:16.330Z,76.73
2018-12-21T20:00:43.741Z,77.48
2018-12-21T20:03:11.200Z,78.03
2018-12-21T20:05:38.712Z,78.22
2018-12-21T20:08:06.151Z,78.75
2018-12-21T20:10:33.581Z,78.34
2018-12-21T20:13:01.091Z,78.76
2018-12-21T20:15:28.531Z,78.10
2018-12-21T20:17:56.088Z,78.33
2018-12-21T20:20:23.556Z,78.60
2018-12-21T20:22:51.104Z,79.09
2018-12-21T20:25:18.584Z,79.35
2018-12-21T20:27:46.005Z,79.03
2018-12-21T20:30:14.628Z,78.63
2018-12-21T20:32:42.061Z,78.58
2018-12-21T20:35:09.737Z,78.16
2018-12-21T20:37:37.269Z,77.81
2018-12-21T20:40:10.362Z,77.50
2018-12-21T20:42:37.895Z,77.23
2018-12-21T20:45:08.409Z,77.10
2018-12-21T20:47:35.839Z,76.75
2018-12-21T20:50:06.139Z,76.64
2018-12-21T20:52:33.566Z,76.30
2018-12-21T20:55:01.005Z,76.07
2018-12-21T20:57:28.472Z,75.73
2018-12-21T20:59:56.042Z,75.33
2018-12-21T21:02:23.631Z,75.80
2018-12-21T21:04:51.089Z,76.28
2018-12-21T21:07:18.519Z,76.04
2018-12-21T21:09:45.941Z,75.31
2018-12-21T21:12:13.516Z,75.79
2018-12-21T21:14:40.978Z,75.53
2018-12-21T21:17:08.469Z,75.37
2018-12-21T21:19:35.884Z,75.67
2018-12-21T21:22:03.384Z,75.86
2018-12-21T21:24:30.851Z,75.69
2018-12-21T21:26:58.283Z,75.75
2018-12-21T21:29:25.763Z,76.16
2018-12-21T21:31:53.195Z,75.88
2018-12-21T21:34:20.622Z,75.91
2018-12-21T21:36:48.139Z,75.73
2018-12-21T21:39:15.578Z,76.81
2018-12-21T21:41:43.001Z,77.01
2018-12-21T21:44:10.539Z,76.91
2018-12-21T21:46:38.067Z,76.59
2018-12-21T21:49:05.510Z,77.31
2018-12-21T21:51:32.931Z,77.10
2018-12-21T21:54:00.351Z,77.87
2018-12-21T21:56:27.802Z,79.47
2018-12-21T21:58:55.222Z,80.74
2018-12-21T22:01:22.724Z,81.76
2018-12-21T22:03:50.141Z,82.67
2018-12-21T22:06:17.622Z,83.58
2018-12-21T22:08:45.053Z,83.89
2018-12-21T22:11:12.517Z,85.08
2018-12-21T22:13:39.945Z,85.32
2018-12-21T22:16:07.489Z,85.59
2018-12-21T22:18:34.907Z,85.84
2018-12-21T22:21:02.344Z,85.84
2018-12-21T22:23:29.897Z,87.00
2018-12-21T22:25:57.373Z,87.06
2018-12-21T22:28:24.847Z,86.49
2018-12-21T22:30:52.289Z,86.45
2018-12-21T22:33:19.702Z,86.68
2018-12-21T22:35:47.135Z,86.45
2018-12-21T22:38:14.579Z,86.93
2018-12-21T22:40:41.999Z,86.10
2018-12-21T22:43:09.471Z,86.79
2018-12-21T22:45:36.921Z,86.12
2018-12-21T22:48:04.484Z,86.82
2018-12-21T22:50:31.926Z,86.25
2018-12-21T22:52:59.405Z,86.48
2018-12-21T22:55:26.860Z,87.40
2018-12-21T22:57:56.586Z,86.73
2018-12-21T23:00:25.753Z,87.57
2018-12-21T23:02:53.205Z,86.69
2018-12-21T23:05:20.691Z,87.44
2018-12-21T23:07:48.116Z,86.41
2018-12-21T23:10:15.588Z,87.12
2018-12-21T23:12:43.015Z,87.08
2018-12-21T23:15:10.436Z,86.66
2018-12-21T23:17:37.861Z,86.52
2018-12-21T23:20:06.199Z,86.80
2018-12-21T23:22:33.637Z,87.73
2018-12-21T23:25:01.142Z,87.34
2018-12-21T23:27:28.640Z,88.00
2018-12-21T23:29:56.154Z,89.28
2018-12-21T23:32:23.599Z,89.01
2018-12-21T23:34:51.095Z,89.70
2018-12-21T23:37:18.512Z,90.33
2018-12-21T23:39:45.947Z,90.69
2018-12-21T23:42:13.449Z,90.52
2018-12-21T23:44:40.881Z,91.69
2018-12-21T23:47:08.301Z,91.38
2018-12-21T23:49:35.916Z,91.56
2018-12-21T23:52:03.349Z,91.31
2018-12-21T23:54:30.836Z,92.00
2018-12-21T23:56:58.261Z,92.40
2018-12-21T23:59:25.793Z,92.44
